East Haven, Indiana
Current Conditions -  °F | °C
As of 11:55 PM on Saturday 25 Oct 2014 (Local Time) from KVES Reporting Station
Clear Clear  
Wind Chill: 52°   Ceiling: Unl
Heat Index: 52°   Visibility: 10mi
Dew Point: 43°   Wind: 6mph
Humidity: 71%   Direction: 300°WNW
Pressure: 29.91"   Gusts: NA
Location:  39.8311°N, 84.8879°W
Report Text: KVES 260355Z AUTO 30005KT 10SM CLR 11/06 A2991 RMK AO2
Loading
Personal Weather Stations






























Interactive Weather Map
Tropical Storm Tracking
New forecast layout! Learn more

10-Day Weather Forecast

Advertisements
Track Severe Weather on mobile